TFM - Tactical Decision Aid
ID: Runway Winds: CIG/VIS Threshold:

KISP - Islip/Macarthur Arpt, NY, US

Updated at: 1759 UTC 26 Oct 2021
Latest TAF at: 1729 UTC 26 Oct 2021

TAF Board

Time1739Z 26/18Z 26/19Z 26/20Z 26/21Z 26/22Z 26/23Z 27/00Z 27/01Z 27/02Z 27/03Z 27/04Z 27/05Z 27/06Z>>
Type OBS PRVL
  [TEMP]  
PRVL
  [TEMP]  
PRVL PRVL PRVL PRVL PRVL PRVL PRVL PRVL PRVL PRVL PRVL
VIS 3 3
  [2]  
3
  [2]  
3 3 3 3 3 3 3 2 2 2 2
CIG 9 15
  [7]  
15
  [7]  
15 15 7 7 7 7 7 7 7 7 7
Cover OVC OVC
  [BKN]  
OVC
  [BKN]  
OVC OVC OVC OVC OVC OVC OVC OVC OVC OVC OVC
FltCat IFR MVFR
  [IFR]  
MVFR
  [IFR]  
MVFR MVFR IFR IFR IFR IFR IFR IFR IFR IFR IFR
WX -RA BR SHRA BR
  [RA BR]  
SHRA BR
  [RA BR]  
SHRA BR SHRA BR RA BR RA BR RA BR RA BR RA BR RA BR RA BR RA BR RA BR
WDir 170 150
[150]
150
[150]
150 150 60 60 60 60 60 350 350 350 350
WSpd 9 15
  [15]  
15
  [15]  
15 15 15 15 15 15 15 24 24 24 24
WGst -- 25
  [25]  
25
  [25]  
25 25 28 28 28 28 28 33 33 33 33

TDA Impact Legend

  None Marginal Slight Moderate High
Visibility (sm) >5 3≤X≤5 2≤X<3 0.5≤X<2 <0.5
Ceiling (100 ft) >30 10≤X≤30 6≤X<10 2≤X<6 <2
Wind Speed (kt) <15 15≤X<25 25≤X<30 ≥30
Wind Gust (kt) <15 15≤X<25 25≤X<35 ≥35
Weather No Wx Reported VCTS -TS,-FZRA TS,FZRA +TS,+FZRA
TAF
KISP 261729Z 2618/2718 15015G25KT 3SM SHRA BR SCT007 OVC015
  TEMPO 2618/2620 2SM RA BR BKN007
  FM262200 06015G28KT 3SM RA BR BKN007 OVC012
  FM270300 35024G33KT 2SM RA BR OVC007
  FM270800 35028G45KT P6SM VCSH OVC012


METAR
KISP 261739Z 17009KT 3SM R06/5500VP6000FT -RA BR BKN009 BKN015 OVC022 17/17 A2938 RMK AO2 P0048 T01720167
KISP 261656Z 18008KT 1SM R06/2600VP6000FT -RA BR OVC007 17/17 A2939 RMK AO2 PK WND 13026/1632 SFC VIS 2 SLP950 P0000 T01670167
KISP 261556Z 13017G26KT 4SM -RA BR BKN008 OVC013 17/17 A2939 RMK AO2 PK WND 12029/1539 SLP951 P0026 T01720172
KISP 261524Z 14018G25KT 1/2SM R06/2600V5000FT RA BR OVC006 18/17 A2938 RMK AO2 PK WND 13028/1501 SFC VIS 3/4 P0011 T01780172
KISP 261456Z 14017G27KT 2SM RA BR BKN008 OVC013 18/17 A2938 RMK AO2 PK WND 12042/1419 SFC VIS 3 SLP947 P0016 60074 T01780172 55029

Radar Display
Forecast Discussion